Time;durP1;ratioP1;P1;durP2;ratioP2;P2;SDS_P1;SDS_P2;PMS_P1;PMS_P2;Temp;Humidity;BMP_temperature;BMP_pressure;BME280_temperature;BME280_humidity;BME280_pressure;Samples;Min_cycle;Max_cycle;Signal;HPM_P1;HPM_P2
2023/11/24 05:00:43;;;;;;;4.68;0.77;;;4.80;99.90;;;;;;5721543;23;20306;-74
2023/11/24 05:03:10;;;;;;;0.73;0.73;;;4.70;99.90;;;;;;4925609;29;20210;-73
2023/11/24 05:05:38;;;;;;;0.45;0.45;;;4.70;99.90;;;;;;4930894;29;20220;-74
2023/11/24 05:08:05;;;;;;;0.63;0.20;;;4.80;99.90;;;;;;4932582;28;20213;-73
2023/11/24 05:10:32;;;;;;;2.05;1.60;;;4.70;99.90;;;;;;4930631;29;20656;-73
2023/11/24 05:12:59;;;;;;;0.40;0.40;;;4.60;99.90;;;;;;4936287;29;20537;-72
2023/11/24 05:15:26;;;;;;;0.43;0.43;;;4.60;99.90;;;;;;4931365;29;20254;-73
2023/11/24 05:17:54;;;;;;;0.57;0.57;;;4.60;99.90;;;;;;4935616;29;20210;-72
2023/11/24 05:20:23;;;;;;;0.20;0.20;;;4.60;99.90;;;;;;4938005;29;20330;-72
2023/11/24 05:22:50;;;;;;;1.38;0.43;;;4.50;99.90;;;;;;4934909;29;20214;-73
2023/11/24 05:25:17;;;;;;;0.52;0.20;;;4.50;99.90;;;;;;4934248;29;20245;-73
2023/11/24 05:27:44;;;;;;;0.40;0.30;;;4.50;99.90;;;;;;4934898;29;20337;-73
2023/11/24 05:30:11;;;;;;;0.45;0.43;;;4.60;99.90;;;;;;4932939;29;20703;-73
2023/11/24 05:32:38;;;;;;;1.30;0.35;;;4.60;99.90;;;;;;4934988;29;20214;-73
2023/11/24 05:35:07;;;;;;;3.25;1.98;;;4.60;99.90;;;;;;4931684;29;20561;-73
2023/11/24 05:37:34;;;;;;;1.27;0.50;;;4.60;99.90;;;;;;4932139;28;20270;-73
2023/11/24 05:40:01;;;;;;;0.40;0.32;;;4.60;99.90;;;;;;4936418;29;20217;-73
2023/11/24 05:42:27;;;;;;;0.52;0.50;;;4.60;99.90;;;;;;4933987;29;20619;-73
2023/11/24 05:44:54;;;;;;;4.47;0.50;;;4.60;99.90;;;;;;4934612;29;20214;-73
2023/11/24 05:47:21;;;;;;;0.80;0.57;;;4.60;99.90;;;;;;4936940;29;20241;-73
2023/11/24 05:49:49;;;;;;;0.40;0.40;;;4.60;99.90;;;;;;4936162;29;20214;-73
2023/11/24 05:52:17;;;;;;;4.00;1.05;;;4.60;99.90;;;;;;4933894;29;20404;-73
2023/11/24 05:54:43;;;;;;;0.75;0.40;;;4.60;99.90;;;;;;4934918;29;20843;-73
2023/11/24 05:57:10;;;;;;;0.25;0.25;;;4.60;99.90;;;;;;4940613;29;20237;-73
2023/11/24 05:59:37;;;;;;;0.95;0.65;;;4.60;99.90;;;;;;4931329;29;20220;-73
2023/11/24 06:02:05;;;;;;;4.03;0.75;;;4.60;99.90;;;;;;4932582;29;20870;-73
2023/11/24 06:04:33;;;;;;;0.50;0.50;;;4.60;99.90;;;;;;4935142;29;20233;-73
2023/11/24 06:06:59;;;;;;;2.83;0.75;;;4.60;99.90;;;;;;4938760;29;20210;-73
2023/11/24 06:09:29;;;;;;;11.32;2.25;;;4.50;99.90;;;;;;4933852;29;20206;-72
2023/11/24 06:11:56;;;;;;;0.85;0.73;;;4.50;99.90;;;;;;4934487;29;20230;-73
2023/11/24 06:14:22;;;;;;;0.40;0.40;;;4.50;99.90;;;;;;4934587;29;20237;-73
2023/11/24 06:16:49;;;;;;;0.75;0.75;;;4.50;99.90;;;;;;4940601;29;20222;-73
2023/11/24 06:19:16;;;;;;;2.05;0.55;;;4.50;99.90;;;;;;4932603;29;20206;-72
2023/11/24 06:21:43;;;;;;;1.75;0.43;;;4.50;99.90;;;;;;4930944;28;20234;-73
2023/11/24 06:24:10;;;;;;;0.40;0.40;;;4.40;99.90;;;;;;4934740;29;20232;-73
2023/11/24 06:26:39;;;;;;;0.50;0.50;;;4.40;99.90;;;;;;4934843;29;20202;-73
2023/11/24 06:29:06;;;;;;;0.40;0.40;;;4.30;99.90;;;;;;4932885;29;20207;-73
2023/11/24 06:31:32;;;;;;;2.20;0.70;;;4.30;99.90;;;;;;4931711;29;20234;-72
2023/11/24 06:33:59;;;;;;;0.73;0.40;;;4.30;99.90;;;;;;4932754;29;20582;-73
2023/11/24 06:36:26;;;;;;;0.30;0.30;;;4.20;99.90;;;;;;4934025;29;20617;-73
2023/11/24 06:38:53;;;;;;;0.65;0.65;;;4.30;99.90;;;;;;4933790;29;20218;-73
2023/11/24 06:41:19;;;;;;;0.22;0.22;;;4.20;99.90;;;;;;4930288;29;20236;-73
2023/11/24 06:43:47;;;;;;;0.30;0.30;;;4.30;99.90;;;;;;4938080;29;20206;-73
2023/11/24 06:46:14;;;;;;;3.50;0.60;;;4.30;99.90;;;;;;4936602;29;20216;-73
2023/11/24 06:48:41;;;;;;;0.40;0.40;;;4.30;99.90;;;;;;4935563;29;20216;-73
2023/11/24 06:51:08;;;;;;;0.47;0.47;;;4.30;99.90;;;;;;4934807;29;20256;-74
2023/11/24 06:53:35;;;;;;;0.70;0.70;;;4.30;99.90;;;;;;4935393;29;20210;-74
2023/11/24 06:56:02;;;;;;;1.60;1.60;;;4.30;99.90;;;;;;4938927;29;20244;-73
2023/11/24 06:58:29;;;;;;;4.07;3.78;;;4.30;99.90;;;;;;4931671;29;20241;-73
2023/11/24 07:00:57;;;;;;;1.10;0.60;;;4.40;99.90;;;;;;4927267;29;20263;-73
2023/11/24 07:03:23;;;;;;;2.00;1.20;;;4.30;99.90;;;;;;4939306;29;20612;-73
2023/11/24 07:05:50;;;;;;;3.25;1.90;;;4.30;99.90;;;;;;4937145;29;20240;-73
2023/11/24 07:08:17;;;;;;;1.38;0.77;;;4.20;99.90;;;;;;4932646;29;20210;-73
2023/11/24 07:10:44;;;;;;;7.55;1.33;;;4.20;99.90;;;;;;4937384;28;20281;-73
2023/11/24 07:13:10;;;;;;;0.93;0.93;;;4.10;99.90;;;;;;4932303;29;20225;-73
2023/11/24 07:15:38;;;;;;;5.00;1.10;;;4.00;99.90;;;;;;4936834;29;20221;-73
2023/11/24 07:18:06;;;;;;;0.57;0.57;;;3.90;99.90;;;;;;4938086;29;20210;-73
2023/11/24 07:20:32;;;;;;;0.88;0.88;;;3.80;99.90;;;;;;4928335;29;20241;-74
2023/11/24 07:22:59;;;;;;;1.58;1.05;;;3.60;99.90;;;;;;4934553;29;20217;-73
2023/11/24 07:25:27;;;;;;;0.93;0.93;;;3.60;99.90;;;;;;4933171;29;20540;-73
2023/11/24 07:27:53;;;;;;;3.25;0.70;;;3.50;99.90;;;;;;4934676;29;20205;-73
2023/11/24 07:30:22;;;;;;;2.00;0.85;;;3.60;99.90;;;;;;4931418;29;20347;-72
2023/11/24 07:32:50;;;;;;;0.70;0.63;;;3.60;99.90;;;;;;4933070;29;20309;-72
2023/11/24 07:35:18;;;;;;;4.43;0.95;;;3.60;99.90;;;;;;4929595;29;20224;-71
2023/11/24 07:37:45;;;;;;;0.22;0.22;;;3.50;99.90;;;;;;4931628;29;20320;-72
2023/11/24 07:40:14;;;;;;;0.40;0.40;;;3.60;99.90;;;;;;4929464;29;20221;-71
2023/11/24 07:42:41;;;;;;;0.30;0.30;;;3.60;99.90;;;;;;4930847;29;20297;-72
2023/11/24 07:45:10;;;;;;;1.10;0.70;;;3.60;99.90;;;;;;4931626;29;20213;-71
2023/11/24 07:47:37;;;;;;;1.27;1.02;;;3.50;99.90;;;;;;4933020;29;20722;-71
2023/11/24 07:50:04;;;;;;;0.85;0.30;;;3.50;99.90;;;;;;4929955;29;20206;-72
2023/11/24 07:52:32;;;;;;;0.63;0.63;;;3.50;99.90;;;;;;4930168;29;20234;-71
2023/11/24 07:54:59;;;;;;;0.28;0.28;;;3.50;99.90;;;;;;4931686;29;20297;-72
2023/11/24 07:57:27;;;;;;;0.20;0.20;;;3.50;99.90;;;;;;4929600;29;20321;-71
2023/11/24 07:59:54;;;;;;;1.35;0.50;;;3.50;99.90;;;;;;4929865;29;20557;-72
2023/11/24 08:02:20;;;;;;;1.23;0.40;;;3.50;99.90;;;;;;4928204;28;20245;-72
2023/11/24 08:04:47;;;;;;;2.90;0.40;;;3.40;99.90;;;;;;4938482;29;20232;-72
2023/11/24 08:07:14;;;;;;;1.48;0.70;;;3.40;99.90;;;;;;4931432;29;20205;-72
2023/11/24 08:09:42;;;;;;;0.52;0.52;;;3.40;99.90;;;;;;4928481;29;20214;-72
2023/11/24 08:12:09;;;;;;;2.80;0.50;;;3.40;99.90;;;;;;4933759;29;20225;-72
2023/11/24 08:14:35;;;;;;;0.40;0.40;;;3.40;99.90;;;;;;4927771;29;20206;-72
2023/11/24 08:17:03;;;;;;;2.92;2.67;;;3.40;99.90;;;;;;4931136;29;20592;-72
2023/11/24 08:19:29;;;;;;;3.28;1.02;;;3.50;99.90;;;;;;4928635;29;20210;-72
2023/11/24 08:21:56;;;;;;;0.57;0.57;;;3.50;99.90;;;;;;4929009;29;20225;-72
2023/11/24 08:24:23;;;;;;;0.77;0.77;;;3.50;99.90;;;;;;4930764;29;20918;-72
2023/11/24 08:26:51;;;;;;;1.50;0.95;;;3.60;99.90;;;;;;4934830;29;20205;-72
2023/11/24 08:29:18;;;;;;;4.72;1.55;;;3.70;99.90;;;;;;4929777;29;20313;-71
2023/11/24 08:31:47;;;;;;;1.55;0.30;;;3.80;99.90;;;;;;4930275;29;20225;-72
2023/11/24 08:34:15;;;;;;;0.50;0.50;;;3.90;99.90;;;;;;4929130;29;20214;-72
2023/11/24 08:36:42;;;;;;;0.20;0.20;;;3.90;99.90;;;;;;4931795;29;20233;-72
2023/11/24 08:39:13;;;;;;;1.38;0.57;;;3.90;99.90;;;;;;4927681;29;20262;-72
2023/11/24 08:41:42;;;;;;;2.30;1.42;;;3.90;99.90;;;;;;4927926;29;20237;-72
2023/11/24 08:44:12;;;;;;;2.17;1.30;;;3.90;99.90;;;;;;4931647;28;20221;-72
2023/11/24 08:46:39;;;;;;;0.40;0.40;;;3.80;99.90;;;;;;4932556;29;20324;-72
2023/11/24 08:49:08;;;;;;;4.85;1.48;;;3.80;99.90;;;;;;4934642;29;20206;-72
2023/11/24 08:51:35;;;;;;;2.80;1.02;;;3.80;99.90;;;;;;4932642;29;20692;-72
2023/11/24 08:54:03;;;;;;;2.88;1.20;;;3.90;99.90;;;;;;4935656;29;20218;-72
2023/11/24 08:56:30;;;;;;;1.55;0.73;;;4.00;99.90;;;;;;4927705;29;20329;-72
2023/11/24 08:58:57;;;;;;;10.10;0.80;;;4.10;99.90;;;;;;4930777;29;20217;-72
2023/11/24 09:01:25;;;;;;;1.10;0.55;;;4.20;99.90;;;;;;4929236;29;20238;-72
2023/11/24 09:03:52;;;;;;;0.57;0.28;;;4.20;99.90;;;;;;4928668;29;20221;-72
2023/11/24 09:06:25;;;;;;;2.47;0.88;;;4.30;99.90;;;;;;4929295;29;20297;-72
2023/11/24 09:08:52;;;;;;;3.80;0.55;;;4.30;99.90;;;;;;4925947;29;20340;-72
2023/11/24 09:11:19;;;;;;;0.38;0.38;;;4.30;99.90;;;;;;4935797;29;20252;-72
2023/11/24 09:13:45;;;;;;;1.02;0.75;;;4.20;99.90;;;;;;4934020;29;20213;-72
2023/11/24 09:16:13;;;;;;;6.03;0.77;;;4.20;99.90;;;;;;4934643;29;20228;-72
2023/11/24 09:18:43;;;;;;;0.80;0.80;;;4.20;99.90;;;;;;4929728;29;20273;-72
2023/11/24 09:21:10;;;;;;;1.38;0.65;;;4.30;99.90;;;;;;4934153;29;20225;-72
2023/11/24 09:23:37;;;;;;;0.63;0.30;;;4.20;99.90;;;;;;4936748;29;20257;-72
2023/11/24 09:26:03;;;;;;;1.02;0.90;;;4.30;99.90;;;;;;4935589;29;20205;-72
2023/11/24 09:28:30;;;;;;;0.52;0.50;;;4.40;99.90;;;;;;4932033;29;20317;-72
2023/11/24 09:30:57;;;;;;;1.75;0.60;;;4.50;99.90;;;;;;4935155;29;20711;-72
2023/11/24 09:33:24;;;;;;;1.92;0.52;;;4.60;99.90;;;;;;4935226;29;20560;-73
2023/11/24 09:35:53;;;;;;;3.20;1.00;;;4.60;99.90;;;;;;4935577;29;20206;-73
2023/11/24 09:38:19;;;;;;;0.40;0.40;;;4.60;99.90;;;;;;4932743;29;20618;-72
2023/11/24 09:40:47;;;;;;;2.70;1.10;;;4.70;99.90;;;;;;4930545;29;20253;-72
2023/11/24 09:43:14;;;;;;;1.60;0.30;;;4.70;99.90;;;;;;4934514;29;20202;-72
2023/11/24 09:45:41;;;;;;;1.02;0.73;;;4.70;99.90;;;;;;4935001;29;20206;-72
2023/11/24 09:48:11;;;;;;;1.25;0.80;;;4.60;99.90;;;;;;4934450;29;20205;-73
2023/11/24 09:50:40;;;;;;;0.85;0.50;;;4.60;99.90;;;;;;4934445;29;20323;-72
2023/11/24 09:53:13;;;;;;;1.05;0.80;;;4.60;99.90;;;;;;4936213;29;20206;-72
2023/11/24 09:55:40;;;;;;;1.55;0.70;;;4.60;99.90;;;;;;4934880;29;20209;-72
2023/11/24 09:58:08;;;;;;;2.97;0.57;;;4.60;99.90;;;;;;4928097;29;20221;-73
2023/11/24 10:00:34;;;;;;;1.98;0.68;;;4.60;99.90;;;;;;4932601;29;20242;-72
2023/11/24 10:03:03;;;;;;;2.75;0.70;;;4.80;99.90;;;;;;4928080;29;20214;-72
2023/11/24 10:05:30;;;;;;;1.17;0.95;;;5.00;99.90;;;;;;4932136;29;20237;-73
2023/11/24 10:07:58;;;;;;;0.60;0.60;;;5.10;99.90;;;;;;4932104;29;20210;-72
2023/11/24 10:10:28;;;;;;;0.90;0.80;;;5.10;99.90;;;;;;4934227;29;20314;-73
2023/11/24 10:12:58;;;;;;;7.75;1.20;;;5.00;99.90;;;;;;4934357;29;20641;-73
2023/11/24 10:15:25;;;;;;;1.85;0.80;;;5.00;99.90;;;;;;4932115;29;20210;-73
2023/11/24 10:17:52;;;;;;;0.70;0.70;;;5.00;99.90;;;;;;4933160;29;20317;-72
2023/11/24 10:20:22;;;;;;;3.30;0.82;;;5.00;99.90;;;;;;4934033;29;20301;-72
2023/11/24 10:22:49;;;;;;;0.95;0.60;;;5.00;99.90;;;;;;4934102;29;20265;-72
2023/11/24 10:25:19;;;;;;;0.80;0.80;;;5.10;99.90;;;;;;4932417;29;20297;-72
2023/11/24 10:27:47;;;;;;;2.30;0.50;;;5.10;99.90;;;;;;4930412;29;20206;-72
2023/11/24 10:30:17;;;;;;;0.60;0.60;;;5.10;99.90;;;;;;4934325;29;20225;-72
2023/11/24 10:32:47;;;;;;;2.85;0.65;;;5.10;99.90;;;;;;4934453;29;20210;-72
2023/11/24 10:35:14;;;;;;;0.88;0.30;;;5.00;99.90;;;;;;4934549;29;20212;-72
2023/11/24 10:37:41;;;;;;;1.00;1.00;;;4.90;99.90;;;;;;4931919;29;20254;-72
2023/11/24 10:40:13;;;;;;;1.05;0.80;;;4.80;99.90;;;;;;4932653;29;20216;-72
2023/11/24 10:42:40;;;;;;;6.25;1.88;;;4.70;99.90;;;;;;4929801;29;20214;-72
2023/11/24 10:45:11;;;;;;;0.60;0.60;;;4.70;99.90;;;;;;4933825;29;20570;-72
2023/11/24 10:47:45;;;;;;;0.65;0.65;;;4.70;99.90;;;;;;4929918;29;20209;-71
2023/11/24 10:50:13;;;;;;;2.60;1.40;;;4.60;99.90;;;;;;4931188;29;20213;-72
2023/11/24 10:52:47;;;;;;;1.95;1.27;;;4.60;99.90;;;;;;4934242;29;20213;-72
2023/11/24 10:55:16;;;;;;;0.95;0.45;;;4.50;99.90;;;;;;4931127;29;20347;-72
2023/11/24 10:57:43;;;;;;;0.90;0.90;;;4.50;99.90;;;;;;4933570;29;20255;-72
2023/11/24 11:00:14;;;;;;;4.32;1.08;;;4.40;99.90;;;;;;4936859;29;20324;-72
2023/11/24 11:02:42;;;;;;;1.95;1.45;;;4.30;99.90;;;;;;4935668;29;20202;-72
2023/11/24 11:05:17;;;;;;;1.33;1.23;;;4.20;99.90;;;;;;4936765;29;20238;-72
2023/11/24 11:07:52;;;;;;;2.05;1.35;;;4.10;99.90;;;;;;4935079;29;20201;-72
2023/11/24 11:10:25;;;;;;;5.78;2.45;;;4.10;99.90;;;;;;4929435;29;20217;-72
2023/11/24 11:12:53;;;;;;;0.80;0.80;;;4.20;99.90;;;;;;4926274;29;20241;-71
2023/11/24 11:15:25;;;;;;;1.33;1.15;;;4.20;99.90;;;;;;4929387;29;20218;-71
2023/11/24 11:18:08;;;;;;;0.85;0.85;;;4.40;99.90;;;;;;4930928;29;20300;-71
2023/11/24 11:20:38;;;;;;;0.80;0.80;;;4.50;99.90;;;;;;4931506;29;20328;-71
2023/11/24 11:23:05;;;;;;;1.15;1.02;;;4.50;99.90;;;;;;4931777;29;20234;-71
2023/11/24 11:25:40;;;;;;;2.70;2.20;;;4.50;99.90;;;;;;4932487;29;20272;-71
2023/11/24 11:28:46;;;;;;;1.48;1.33;;;4.60;99.90;;;;;;4927891;29;20213;-71
2023/11/24 11:31:27;;;;;;;0.68;0.68;;;4.70;99.90;;;;;;4931963;29;20232;-71
2023/11/24 11:33:55;;;;;;;2.08;1.95;;;4.80;99.90;;;;;;4928168;29;20206;-71
2023/11/24 11:36:26;;;;;;;1.27;0.68;;;4.90;99.90;;;;;;4931706;29;20214;-71
2023/11/24 11:38:54;;;;;;;2.00;0.80;;;4.80;99.90;;;;;;4930627;29;20241;-72
2023/11/24 11:41:41;;;;;;;5.03;3.30;;;4.80;99.90;;;;;;4928990;29;20237;-72
2023/11/24 11:44:18;;;;;;;3.33;1.95;;;4.70;99.90;;;;;;4929408;29;20226;-72
2023/11/24 11:47:08;;;;;;;4.65;3.80;;;4.70;99.90;;;;;;4931753;29;20214;-71
2023/11/24 11:49:36;;;;;;;2.10;1.13;;;4.60;99.90;;;;;;4929643;29;20265;-71
2023/11/24 11:52:06;;;;;;;0.60;0.60;;;4.70;99.90;;;;;;4932603;29;20324;-71
2023/11/24 11:54:34;;;;;;;6.95;1.40;;;4.60;99.90;;;;;;4930582;29;20218;-71
2023/11/24 11:57:01;;;;;;;1.48;1.10;;;4.50;99.90;;;;;;4932310;29;20234;-71
2023/11/24 11:59:28;;;;;;;0.98;0.90;;;4.60;99.90;;;;;;4932892;29;20812;-70
2023/11/24 12:01:55;;;;;;;1.00;1.00;;;4.60;99.90;;;;;;4931359;29;20248;-71
2023/11/24 12:04:28;;;;;;;1.65;1.25;;;4.60;99.90;;;;;;4932215;29;20201;-70
2023/11/24 12:06:55;;;;;;;1.95;0.80;;;4.60;99.90;;;;;;4927127;29;20205;-71
2023/11/24 12:09:23;;;;;;;1.02;1.02;;;4.60;99.90;;;;;;4933561;29;20593;-71
2023/11/24 12:11:49;;;;;;;1.70;1.60;;;4.60;99.90;;;;;;4932302;29;20230;-71
2023/11/24 12:14:16;;;;;;;1.42;0.60;;;4.60;99.90;;;;;;4927143;29;20206;-71
2023/11/24 12:16:43;;;;;;;0.90;0.90;;;4.50;99.90;;;;;;4924658;29;20224;-71
2023/11/24 12:19:11;;;;;;;1.65;1.00;;;4.50;99.90;;;;;;4926937;29;20226;-71
2023/11/24 12:21:42;;;;;;;0.65;0.65;;;4.50;99.90;;;;;;4926330;29;20260;-70
2023/11/24 12:24:10;;;;;;;0.80;0.80;;;4.50;99.90;;;;;;4933065;29;20206;-71
2023/11/24 12:26:39;;;;;;;0.47;0.47;;;4.50;99.90;;;;;;4931515;29;20214;-70
2023/11/24 12:29:11;;;;;;;0.90;0.85;;;4.40;99.90;;;;;;4932418;29;20210;-70
2023/11/24 12:31:41;;;;;;;1.40;1.30;;;4.40;99.90;;;;;;4929149;29;20230;-70
2023/11/24 12:34:16;;;;;;;1.23;1.23;;;4.40;99.90;;;;;;4931892;29;20297;-70
2023/11/24 12:36:45;;;;;;;1.95;1.75;;;4.40;99.90;;;;;;4933850;29;20213;-70
2023/11/24 12:39:13;;;;;;;1.83;1.73;;;4.40;99.90;;;;;;4934999;29;20304;-70
2023/11/24 12:41:41;;;;;;;1.40;1.17;;;4.40;99.90;;;;;;4927296;29;21495;-70
2023/11/24 12:44:09;;;;;;;1.20;1.20;;;4.40;99.90;;;;;;4929185;29;20282;-70
2023/11/24 12:46:36;;;;;;;0.80;0.80;;;4.40;99.90;;;;;;4931097;29;20218;-70
2023/11/24 12:49:04;;;;;;;1.55;1.33;;;4.40;99.90;;;;;;4934670;29;20252;-70
2023/11/24 12:51:32;;;;;;;3.60;0.98;;;4.40;99.90;;;;;;4935075;29;20236;-69
2023/11/24 12:54:01;;;;;;;5.70;2.08;;;4.40;99.90;;;;;;4938382;29;20209;-69
2023/11/24 12:56:28;;;;;;;1.60;1.50;;;4.40;99.90;;;;;;4935810;29;20293;-70
2023/11/24 12:58:56;;;;;;;1.35;1.35;;;4.40;99.90;;;;;;4933444;29;20229;-70
2023/11/24 13:01:22;;;;;;;3.20;1.83;;;4.40;99.90;;;;;;4935521;29;20297;-72
2023/11/24 13:03:52;;;;;;;1.00;1.00;;;4.40;99.90;;;;;;4936859;29;20538;-72
2023/11/24 13:06:19;;;;;;;4.25;0.80;;;4.40;99.90;;;;;;4934044;29;20301;-71
2023/11/24 13:08:46;;;;;;;1.23;1.13;;;4.40;99.90;;;;;;4933679;29;20673;-71
2023/11/24 13:11:14;;;;;;;1.75;1.65;;;4.30;99.90;;;;;;4933256;29;20249;-71
2023/11/24 13:13:42;;;;;;;3.25;1.55;;;4.30;99.90;;;;;;4934166;29;20218;-71
2023/11/24 13:16:09;;;;;;;9.65;2.28;;;4.20;99.90;;;;;;4934081;29;20296;-71
2023/11/24 13:18:38;;;;;;;3.20;2.75;;;4.20;99.90;;;;;;4933813;29;20237;-71
2023/11/24 13:21:08;;;;;;;5.18;3.97;;;4.10;99.90;;;;;;4934641;29;20229;-71
2023/11/24 13:23:36;;;;;;;4.20;3.20;;;4.10;99.90;;;;;;4933184;29;20677;-71
2023/11/24 13:26:03;;;;;;;4.65;1.23;;;4.10;99.90;;;;;;4940516;29;20579;-73
2023/11/24 13:28:32;;;;;;;3.05;2.30;;;4.10;99.90;;;;;;4935748;29;20228;-69
2023/11/24 13:30:59;;;;;;;1.75;1.50;;;3.90;99.90;;;;;;4935168;29;20233;-71
2023/11/24 13:33:25;;;;;;;5.40;1.90;;;3.80;99.90;;;;;;4933901;29;20289;-71
2023/11/24 13:35:52;;;;;;;0.60;0.60;;;3.70;99.90;;;;;;4934454;29;20223;-70
2023/11/24 13:38:19;;;;;;;0.88;0.60;;;3.60;99.90;;;;;;4928931;29;20225;-71
2023/11/24 13:40:46;;;;;;;1.10;1.10;;;3.50;99.90;;;;;;4936426;28;20225;-70
2023/11/24 13:43:13;;;;;;;1.13;1.05;;;3.60;99.90;;;;;;4927999;29;20251;-70
2023/11/24 13:45:42;;;;;;;4.10;1.65;;;3.50;99.90;;;;;;4933388;29;20673;-70
2023/11/24 13:48:10;;;;;;;2.95;1.10;;;3.60;99.90;;;;;;4936063;29;20217;-71
2023/11/24 13:50:39;;;;;;;1.27;1.25;;;3.60;99.90;;;;;;4935329;29;20700;-71
2023/11/24 13:53:06;;;;;;;5.15;1.15;;;3.60;99.90;;;;;;4932596;29;21295;-71
2023/11/24 13:55:36;;;;;;;2.45;2.35;;;3.70;99.90;;;;;;4932594;29;20210;-71
2023/11/24 13:58:03;;;;;;;2.88;1.45;;;3.70;99.90;;;;;;4933319;29;20640;-71
2023/11/24 14:00:31;;;;;;;5.43;2.70;;;3.80;99.90;;;;;;4928721;29;20331;-70
2023/11/24 14:02:59;;;;;;;2.40;2.20;;;3.80;99.90;;;;;;4933128;29;20289;-70
2023/11/24 14:05:26;;;;;;;6.05;2.90;;;3.80;99.90;;;;;;4934235;29;20677;-70
2023/11/24 14:07:53;;;;;;;1.25;1.15;;;3.90;99.90;;;;;;4933793;29;20242;-70
2023/11/24 14:10:21;;;;;;;1.25;1.00;;;3.90;99.90;;;;;;4936350;28;20240;-70
2023/11/24 14:12:48;;;;;;;0.80;0.80;;;3.90;99.90;;;;;;4934408;29;20233;-71
2023/11/24 14:15:15;;;;;;;0.90;0.90;;;3.90;99.90;;;;;;4933753;29;20210;-71
2023/11/24 14:17:42;;;;;;;3.22;0.95;;;4.00;99.90;;;;;;4932658;29;20251;-70
2023/11/24 14:20:12;;;;;;;0.85;0.85;;;3.90;99.90;;;;;;4930548;29;20234;-71
2023/11/24 14:22:39;;;;;;;1.67;0.90;;;3.90;99.90;;;;;;4933332;29;20218;-71
2023/11/24 14:25:08;;;;;;;9.48;7.18;;;3.90;99.90;;;;;;4934211;29;20218;-71
2023/11/24 14:27:35;;;;;;;5.45;1.83;;;3.90;99.90;;;;;;4934714;29;20298;-71
2023/11/24 14:30:05;;;;;;;6.75;2.17;;;3.90;99.90;;;;;;4932175;29;20660;-72
2023/11/24 14:32:32;;;;;;;1.40;1.30;;;3.90;99.90;;;;;;4931539;29;20237;-71
2023/11/24 14:34:59;;;;;;;1.40;1.30;;;3.90;99.90;;;;;;4936126;29;20659;-72
2023/11/24 14:37:27;;;;;;;1.35;1.25;;;3.90;99.90;;;;;;4932499;29;21110;-71
2023/11/24 14:39:57;;;;;;;1.52;1.40;;;3.90;99.90;;;;;;4932434;29;20248;-71
2023/11/24 14:42:23;;;;;;;0.98;0.60;;;3.90;99.90;;;;;;4931381;29;20225;-70
2023/11/24 14:44:50;;;;;;;1.25;1.25;;;3.90;99.90;;;;;;4934056;29;20221;-71
2023/11/24 14:47:16;;;;;;;1.48;1.38;;;3.80;99.90;;;;;;4934487;29;20214;-72
2023/11/24 14:49:43;;;;;;;3.30;1.15;;;3.80;99.90;;;;;;4932373;29;20214;-72
2023/11/24 14:52:11;;;;;;;1.10;1.10;;;3.80;99.90;;;;;;4929446;29;20225;-72
2023/11/24 14:54:39;;;;;;;1.23;1.20;;;3.80;99.90;;;;;;4936808;29;20679;-72
2023/11/24 14:57:06;;;;;;;4.30;1.20;;;3.80;99.90;;;;;;4934958;29;20288;-71
2023/11/24 14:59:33;;;;;;;0.50;0.50;;;3.80;99.90;;;;;;4932979;29;20233;-71
2023/11/24 15:02:04;;;;;;;1.58;1.58;;;3.80;99.90;;;;;;4932608;29;20242;-71
2023/11/24 15:04:31;;;;;;;1.77;1.13;;;3.80;99.90;;;;;;4928327;29;20880;-71
2023/11/24 15:07:00;;;;;;;0.30;0.30;;;3.80;99.90;;;;;;4931003;29;20592;-71
2023/11/24 15:09:27;;;;;;;1.33;1.02;;;3.70;99.90;;;;;;4924327;29;20305;-71
2023/11/24 15:11:55;;;;;;;1.85;1.85;;;3.70;99.90;;;;;;4928864;29;20237;-71
2023/11/24 15:14:31;;;;;;;0.73;0.70;;;3.70;99.90;;;;;;4934802;29;20557;-73
2023/11/24 15:17:00;;;;;;;0.95;0.70;;;3.70;99.90;;;;;;4930766;29;20213;-71
2023/11/24 15:19:27;;;;;;;1.90;0.85;;;3.60;99.90;;;;;;4929220;29;20542;-70
2023/11/24 15:21:55;;;;;;;4.30;3.08;;;3.70;99.90;;;;;;4929798;29;20701;-71
2023/11/24 15:24:21;;;;;;;2.55;1.55;;;3.70;99.90;;;;;;4936453;29;20201;-71
2023/11/24 15:26:48;;;;;;;2.40;0.85;;;3.70;99.90;;;;;;4935579;28;20698;-71
2023/11/24 15:29:16;;;;;;;1.50;1.40;;;3.70;99.90;;;;;;4932022;29;20221;-71
2023/11/24 15:31:44;;;;;;;0.75;0.75;;;3.70;99.90;;;;;;4931440;29;20226;-71
2023/11/24 15:34:12;;;;;;;0.65;0.65;;;3.60;99.90;;;;;;4931649;29;20276;-72
2023/11/24 15:36:38;;;;;;;1.63;0.68;;;3.50;99.90;;;;;;4922870;29;20205;-71
2023/11/24 15:39:11;;;;;;;0.77;0.77;;;3.50;99.90;;;;;;4925545;29;20712;-71
2023/11/24 15:41:40;;;;;;;1.50;1.50;;;3.50;99.90;;;;;;4928495;29;20661;-71
2023/11/24 15:44:08;;;;;;;5.65;1.75;;;3.50;99.90;;;;;;4933694;29;20670;-71
2023/11/24 15:46:38;;;;;;;2.15;1.42;;;3.40;99.90;;;;;;4929470;29;20296;-74
2023/11/24 15:49:10;;;;;;;0.60;0.60;;;3.40;99.90;;;;;;4928525;29;20334;-72
2023/11/24 15:51:39;;;;;;;0.80;0.80;;;3.40;99.90;;;;;;4931162;29;20260;-74
2023/11/24 15:54:08;;;;;;;1.95;0.70;;;3.40;99.90;;;;;;4934245;29;20218;-72
2023/11/24 15:56:38;;;;;;;0.40;0.40;;;3.40;99.90;;;;;;4933152;29;20249;-72
2023/11/24 15:59:07;;;;;;;1.45;1.17;;;3.40;99.90;;;;;;4931797;29;20247;-72
2023/11/24 16:01:36;;;;;;;1.40;0.90;;;3.50;99.90;;;;;;4931058;29;20305;-72
2023/11/24 16:04:08;;;;;;;0.90;0.90;;;3.50;99.90;;;;;;4931390;29;20297;-72
2023/11/24 16:06:39;;;;;;;0.40;0.40;;;3.50;99.90;;;;;;4933369;29;20214;-72
2023/11/24 16:09:09;;;;;;;0.47;0.47;;;3.50;99.90;;;;;;4946637;23;20240;-75
2023/11/24 16:11:36;;;;;;;0.95;0.95;;;3.50;99.90;;;;;;4936874;28;20219;-75
2023/11/24 16:14:03;;;;;;;0.43;0.43;;;3.50;99.90;;;;;;4934480;29;20216;-73
2023/11/24 16:16:29;;;;;;;0.50;0.50;;;3.50;99.90;;;;;;4930263;29;20216;-74
2023/11/24 16:18:56;;;;;;;3.50;1.10;;;3.50;99.90;;;;;;4931313;29;20226;-75
2023/11/24 16:21:27;;;;;;;0.80;0.68;;;3.50;99.90;;;;;;4931876;29;20687;-74
2023/11/24 16:23:54;;;;;;;6.90;1.42;;;3.50;99.90;;;;;;4930976;29;20206;-74
2023/11/24 16:26:20;;;;;;;2.92;0.50;;;3.50;99.90;;;;;;4935418;29;20241;-74
2023/11/24 16:28:47;;;;;;;0.55;0.55;;;3.50;99.90;;;;;;4935709;29;20237;-73
2023/11/24 16:31:15;;;;;;;1.10;1.00;;;3.60;99.90;;;;;;4935739;29;20581;-75
2023/11/24 16:33:41;;;;;;;1.15;1.08;;;3.50;99.90;;;;;;4925336;29;20693;-73
2023/11/24 16:37:07;;;;;;;1.75;1.33;;;3.50;99.90;;;;;;5159396;27;20576;-71
2023/11/24 16:39:34;;;;;;;0.82;0.70;;;3.50;99.90;;;;;;5157137;27;20233;-72
2023/11/24 16:42:01;;;;;;;0.75;0.75;;;3.50;99.90;;;;;;5166946;27;20205;-72
2023/11/24 16:44:28;;;;;;;0.80;0.50;;;3.50;99.90;;;;;;5169211;27;20237;-71
2023/11/24 16:46:57;;;;;;;1.05;0.90;;;3.50;99.90;;;;;;5169690;27;20238;-71
2023/11/24 16:49:24;;;;;;;1.05;0.40;;;3.50;99.90;;;;;;5164476;27;20595;-70
2023/11/24 16:51:52;;;;;;;1.20;0.70;;;3.40;99.90;;;;;;5159911;27;20251;-72
2023/11/24 16:54:20;;;;;;;2.03;0.57;;;3.50;99.90;;;;;;5164251;27;20649;-71
2023/11/24 16:56:48;;;;;;;3.53;0.73;;;3.40;99.90;;;;;;5165567;27;20309;-70
2023/11/24 16:59:18;;;;;;;0.88;0.88;;;3.40;99.90;;;;;;5166472;27;20345;-71
2023/11/24 17:01:45;;;;;;;1.13;1.02;;;3.30;99.90;;;;;;5164554;27;20202;-68
2023/11/24 17:04:12;;;;;;;1.27;1.05;;;3.30;99.90;;;;;;5158006;27;20212;-70
2023/11/24 17:06:39;;;;;;;1.88;0.90;;;3.20;99.90;;;;;;5163786;27;20221;-70
2023/11/24 17:09:11;;;;;;;0.45;0.45;;;3.20;99.90;;;;;;5168411;27;20210;-69
2023/11/24 17:11:41;;;;;;;0.75;0.75;;;3.20;99.90;;;;;;5169943;27;20673;-70
2023/11/24 17:14:08;;;;;;;0.65;0.65;;;3.20;99.90;;;;;;5168471;27;20250;-71
2023/11/24 17:16:35;;;;;;;1.00;1.00;;;3.20;99.90;;;;;;5168924;27;20309;-68
2023/11/24 17:19:02;;;;;;;1.38;1.25;;;3.20;99.90;;;;;;5166226;27;20639;-71
2023/11/24 17:21:29;;;;;;;2.35;0.65;;;3.20;99.90;;;;;;5169507;27;20225;-72
2023/11/24 17:23:56;;;;;;;0.85;0.85;;;3.30;99.90;;;;;;5168284;27;20659;-71
2023/11/24 17:26:23;;;;;;;1.48;0.57;;;3.20;99.90;;;;;;5168862;27;20555;-70
2023/11/24 17:28:53;;;;;;;4.20;1.55;;;3.30;99.90;;;;;;5168058;27;20225;-70
2023/11/24 17:31:23;;;;;;;1.45;0.50;;;3.30;99.90;;;;;;5165734;27;20229;-71
2023/11/24 17:33:50;;;;;;;2.40;0.90;;;3.30;99.90;;;;;;5161970;27;20212;-71
2023/11/24 17:36:17;;;;;;;3.60;0.70;;;3.30;99.90;;;;;;5169079;27;20230;-74
2023/11/24 17:38:44;;;;;;;6.15;1.20;;;3.30;99.90;;;;;;5165573;27;20198;-72
2023/11/24 17:41:11;;;;;;;1.08;0.35;;;3.30;99.90;;;;;;5162427;27;20234;-72
2023/11/24 17:43:38;;;;;;;0.95;0.90;;;3.30;99.90;;;;;;5167213;27;20287;-72
2023/11/24 17:46:07;;;;;;;1.00;1.00;;;3.30;99.90;;;;;;5177040;27;20268;-70
2023/11/24 17:48:36;;;;;;;1.00;0.88;;;3.30;99.90;;;;;;5145627;27;20202;-71
2023/11/24 17:51:05;;;;;;;1.75;1.65;;;3.30;99.90;;;;;;5142223;27;20283;-71
2023/11/24 17:53:32;;;;;;;5.82;1.50;;;3.80;99.90;;;;;;5163647;27;20198;-72
2023/11/24 17:56:00;;;;;;;0.80;0.80;;;3.50;99.90;;;;;;5153172;27;20697;-72
2023/11/24 17:58:27;;;;;;;4.47;1.50;;;3.50;99.90;;;;;;5150745;27;20199;-73
2023/11/24 18:00:54;;;;;;;2.05;1.95;;;3.50;99.90;;;;;;5151681;27;20253;-70
2023/11/24 18:03:23;;;;;;;4.15;2.53;;;3.60;99.90;;;;;;5151596;27;20210;-70